Cucamonga, California
Current Conditions -  °F | °C
As of 8:53 AM on Tuesday 27 Jan 2015 (Local Time) from KONT Reporting Station
Broken Clouds Broken Clouds  
Wind Chill: 61°   Ceiling: 8500
Heat Index: 61°   Visibility: 10mi
Dew Point: 53°   Wind: 3mph
Humidity: 75%   Direction: 100°E
Pressure: 30.21"   Gusts: NA
Location:  34.1001°N, 117.582°W
Report Text: KONT 271653Z 10003KT 10SM FEW050 SCT070 BKN085 16/12 A3021 RMK AO2 SLP226 FU SW T01610117
Loading
Personal Weather Stations






























Interactive Weather Map New forecast layout! Learn more

10-Day Weather Forecast

Advertisements
Track Severe Weather on mobile